createdAt,value
2023-05-10T00:00:23.405Z,17.30
2023-05-10T00:02:50.232Z,17.20
2023-05-10T00:05:17.033Z,17.20
2023-05-10T00:07:45.770Z,17.30
2023-05-10T00:10:12.803Z,17.30
2023-05-10T00:12:39.608Z,17.30
2023-05-10T00:15:07.013Z,17.30
2023-05-10T00:17:33.882Z,17.20
2023-05-10T00:20:01.351Z,17.20
2023-05-10T00:22:28.109Z,17.20
2023-05-10T00:24:54.789Z,17.20
2023-05-10T00:27:21.598Z,17.10
2023-05-10T00:29:48.380Z,17.10
2023-05-10T00:32:15.096Z,17.10
2023-05-10T00:34:41.831Z,17.00
2023-05-10T00:37:08.472Z,17.00
2023-05-10T00:39:35.346Z,17.00
2023-05-10T00:42:02.162Z,17.00
2023-05-10T00:44:28.829Z,17.00
2023-05-10T00:46:55.536Z,17.00
2023-05-10T00:49:22.395Z,16.90
2023-05-10T00:51:49.820Z,16.90
2023-05-10T00:54:17.158Z,16.80
2023-05-10T00:56:49.457Z,16.80
2023-05-10T00:59:18.002Z,16.70
2023-05-10T01:01:48.619Z,16.60
2023-05-10T01:04:16.053Z,16.60
2023-05-10T01:06:43.351Z,16.50
2023-05-10T01:09:10.717Z,16.50
2023-05-10T01:11:39.434Z,16.40
2023-05-10T01:14:06.738Z,16.40
2023-05-10T01:16:38.125Z,16.40
2023-05-10T01:19:16.761Z,16.30
2023-05-10T01:21:53.913Z,16.30
2023-05-10T01:24:45.657Z,16.20
2023-05-10T01:27:42.591Z,16.20
2023-05-10T01:30:35.522Z,16.20
2023-05-10T01:33:24.145Z,16.10
2023-05-10T01:36:04.899Z,16.00
2023-05-10T01:38:47.156Z,15.90
2023-05-10T01:41:17.453Z,15.90
2023-05-10T01:43:56.134Z,15.90
2023-05-10T01:46:32.321Z,15.90
2023-05-10T01:49:00.911Z,15.80
2023-05-10T01:51:32.366Z,15.80
2023-05-10T01:54:04.585Z,15.80
2023-05-10T01:56:34.085Z,15.80
2023-05-10T01:59:02.157Z,15.80
2023-05-10T02:01:29.148Z,15.80
2023-05-10T02:03:57.885Z,15.80
2023-05-10T02:06:25.839Z,15.80
2023-05-10T02:08:54.548Z,15.80
2023-05-10T02:11:22.507Z,15.90
2023-05-10T02:13:51.248Z,15.90
2023-05-10T02:16:19.213Z,15.90
2023-05-10T02:18:47.541Z,15.90
2023-05-10T02:21:15.385Z,15.90
2023-05-10T02:23:43.162Z,15.90
2023-05-10T02:26:11.329Z,16.00
2023-05-10T02:28:38.675Z,15.90
2023-05-10T02:31:07.646Z,15.90
2023-05-10T02:33:36.280Z,15.90
2023-05-10T02:36:04.540Z,15.90
2023-05-10T02:38:33.636Z,16.00
2023-05-10T02:41:01.388Z,16.00
2023-05-10T02:43:31.250Z,16.00
2023-05-10T02:45:58.491Z,16.00
2023-05-10T02:48:25.404Z,16.00
2023-05-10T02:50:55.842Z,15.90
2023-05-10T02:53:31.357Z,15.90
2023-05-10T02:56:01.737Z,15.90
2023-05-10T02:58:28.424Z,15.80
2023-05-10T03:00:55.101Z,15.80
2023-05-10T03:03:22.008Z,15.80
2023-05-10T03:05:48.674Z,15.80
2023-05-10T03:08:15.388Z,15.80
2023-05-10T03:10:57.644Z,15.80
2023-05-10T03:13:36.857Z,15.70
2023-05-10T03:16:16.449Z,15.70
2023-05-10T03:19:25.008Z,15.70
2023-05-10T03:21:54.660Z,15.70
2023-05-10T03:24:28.331Z,15.70
2023-05-10T03:26:58.023Z,15.70
2023-05-10T03:29:26.995Z,15.70
2023-05-10T03:31:53.808Z,15.70
2023-05-10T03:34:25.246Z,15.70
2023-05-10T03:36:52.322Z,15.60
2023-05-10T03:39:19.186Z,15.70
2023-05-10T03:41:45.982Z,15.60
2023-05-10T03:44:12.735Z,15.50
2023-05-10T03:46:39.400Z,15.50
2023-05-10T03:49:06.409Z,15.40
2023-05-10T03:51:33.246Z,15.40
2023-05-10T03:53:59.898Z,15.40
2023-05-10T03:56:26.539Z,15.40
2023-05-10T03:58:53.214Z,15.40
2023-05-10T04:01:19.893Z,15.40
2023-05-10T04:03:46.654Z,15.50
2023-05-10T04:06:13.498Z,15.40
2023-05-10T04:08:40.302Z,15.40
2023-05-10T04:11:11.388Z,15.40
2023-05-10T04:13:39.364Z,15.40
2023-05-10T04:16:06.396Z,15.40
2023-05-10T04:18:33.128Z,15.50
2023-05-10T04:20:59.798Z,15.50
2023-05-10T04:23:26.783Z,15.50
2023-05-10T04:25:53.535Z,15.50
2023-05-10T04:28:20.179Z,15.50
2023-05-10T04:30:47.113Z,15.50
2023-05-10T04:33:13.793Z,15.50
2023-05-10T04:35:40.982Z,15.50
2023-05-10T04:38:07.836Z,15.60
2023-05-10T04:40:35.140Z,15.60
2023-05-10T04:43:01.870Z,15.60
2023-05-10T04:45:28.571Z,15.70
2023-05-10T04:47:55.341Z,15.70
2023-05-10T04:50:22.045Z,15.70
2023-05-10T04:52:48.714Z,15.60
2023-05-10T04:55:15.456Z,15.60
2023-05-10T04:57:42.121Z,15.60
2023-05-10T05:00:09.410Z,15.50
2023-05-10T05:02:36.245Z,15.40
2023-05-10T05:05:03.017Z,15.50
2023-05-10T05:07:31.430Z,15.50
2023-05-10T05:09:58.072Z,15.50
2023-05-10T05:12:24.741Z,15.50
2023-05-10T05:14:51.383Z,15.50
2023-05-10T05:17:18.006Z,15.50
2023-05-10T05:19:44.637Z,15.60
2023-05-10T05:22:11.374Z,15.70
2023-05-10T05:24:40.805Z,15.70
2023-05-10T05:27:07.856Z,15.70
2023-05-10T05:29:34.505Z,15.80
2023-05-10T05:32:02.021Z,15.90
2023-05-10T05:34:28.787Z,15.90
2023-05-10T05:36:55.460Z,16.00
2023-05-10T05:39:22.186Z,16.00
2023-05-10T05:41:48.829Z,16.10
2023-05-10T05:44:15.537Z,16.20
2023-05-10T05:46:42.175Z,16.20
2023-05-10T05:49:08.817Z,16.10
2023-05-10T05:51:36.550Z,16.20
2023-05-10T05:54:05.178Z,16.20
2023-05-10T05:56:31.860Z,16.20
2023-05-10T05:58:58.544Z,16.30
2023-05-10T06:01:25.171Z,16.20
2023-05-10T06:03:53.505Z,16.30
2023-05-10T06:06:20.448Z,16.30
2023-05-10T06:08:47.139Z,16.30
2023-05-10T06:11:13.828Z,16.40
2023-05-10T06:13:40.590Z,16.40
2023-05-10T06:16:07.718Z,16.50
2023-05-10T06:18:34.553Z,16.60
2023-05-10T06:21:01.329Z,16.70
2023-05-10T06:23:28.049Z,16.70
2023-05-10T06:25:54.855Z,16.80
2023-05-10T06:28:21.985Z,16.80
2023-05-10T06:30:48.856Z,16.80
2023-05-10T06:33:16.989Z,16.70
2023-05-10T06:35:43.733Z,16.70
2023-05-10T06:38:10.401Z,16.80
2023-05-10T06:40:37.064Z,16.90
2023-05-10T06:43:03.734Z,16.90
2023-05-10T06:45:30.461Z,16.90
2023-05-10T06:47:57.191Z,17.00
2023-05-10T06:50:24.211Z,17.10
2023-05-10T06:52:52.978Z,17.10
2023-05-10T06:55:19.945Z,17.20
2023-05-10T06:57:46.647Z,17.30
2023-05-10T07:00:13.803Z,17.40
2023-05-10T07:02:40.749Z,17.40
2023-05-10T07:05:07.791Z,17.40
2023-05-10T07:07:34.546Z,17.40
2023-05-10T07:10:01.390Z,17.40
2023-05-10T07:12:28.175Z,17.40
2023-05-10T07:14:54.863Z,17.50
2023-05-10T07:17:21.756Z,17.70
2023-05-10T07:19:48.498Z,17.90
2023-05-10T07:22:16.325Z,18.00
2023-05-10T07:24:43.459Z,18.00
2023-05-10T07:27:10.480Z,18.10
2023-05-10T07:29:38.342Z,18.10
2023-05-10T07:32:05.785Z,18.20
2023-05-10T07:34:32.714Z,18.20
2023-05-10T07:36:59.977Z,18.30
2023-05-10T07:39:29.973Z,18.30
2023-05-10T07:41:57.363Z,18.50
2023-05-10T07:44:24.201Z,18.60
2023-05-10T07:46:50.934Z,18.60
2023-05-10T07:49:17.702Z,18.70
2023-05-10T07:51:44.739Z,18.60
2023-05-10T07:54:11.558Z,18.60
2023-05-10T07:56:38.222Z,18.70
2023-05-10T07:59:07.278Z,18.70
2023-05-10T08:01:35.308Z,18.80
2023-05-10T08:04:02.804Z,18.80
2023-05-10T08:06:30.799Z,18.70
2023-05-10T08:08:57.633Z,18.60
2023-05-10T08:11:24.341Z,18.50
2023-05-10T08:13:51.874Z,18.60
2023-05-10T08:16:19.054Z,18.50
2023-05-10T08:18:47.645Z,18.50
2023-05-10T08:21:15.335Z,18.40
2023-05-10T08:23:42.234Z,18.50
2023-05-10T08:26:08.945Z,18.60
2023-05-10T08:28:35.647Z,18.80
2023-05-10T08:31:02.364Z,19.00
2023-05-10T08:33:29.006Z,19.20
2023-05-10T08:35:55.736Z,19.30
2023-05-10T08:38:22.337Z,19.20
2023-05-10T08:40:50.325Z,19.00
2023-05-10T08:43:17.217Z,18.90
2023-05-10T08:45:48.348Z,18.80
2023-05-10T08:48:16.065Z,18.90
2023-05-10T08:50:43.930Z,18.90
2023-05-10T08:53:12.573Z,19.00
2023-05-10T08:55:39.818Z,19.10
2023-05-10T08:58:07.361Z,18.90
2023-05-10T09:00:34.934Z,18.90
2023-05-10T09:03:02.617Z,18.70
2023-05-10T09:05:29.429Z,18.70
2023-05-10T09:07:56.137Z,18.70
2023-05-10T09:10:26.853Z,18.80
2023-05-10T09:12:54.574Z,18.80
2023-05-10T09:15:21.437Z,18.80
2023-05-10T09:17:49.716Z,18.70
2023-05-10T09:20:18.228Z,18.90
2023-05-10T09:22:45.300Z,19.00
2023-05-10T09:25:14.366Z,19.10
2023-05-10T09:27:42.706Z,19.20
2023-05-10T09:30:09.808Z,19.30
2023-05-10T09:32:45.937Z,19.40
2023-05-10T09:35:14.728Z,19.60
2023-05-10T09:37:42.864Z,19.70
2023-05-10T09:40:13.756Z,19.80
2023-05-10T09:42:41.767Z,20.00
2023-05-10T09:45:08.908Z,20.10
2023-05-10T09:47:37.067Z,20.30
2023-05-10T09:50:05.589Z,20.50
2023-05-10T09:52:49.598Z,20.70
2023-05-10T09:55:17.266Z,20.60
2023-05-10T09:57:44.239Z,20.30
2023-05-10T10:00:11.297Z,20.00
2023-05-10T10:02:38.136Z,19.90
2023-05-10T10:05:07.100Z,20.00
2023-05-10T10:07:34.905Z,20.20
2023-05-10T10:10:01.921Z,20.50
2023-05-10T10:12:28.930Z,20.80
2023-05-10T10:14:57.002Z,21.00
2023-05-10T10:17:28.635Z,21.30
2023-05-10T10:19:56.418Z,21.30
2023-05-10T10:22:23.099Z,21.00
2023-05-10T10:24:51.280Z,20.00
2023-05-10T10:27:27.692Z,19.60
2023-05-10T10:30:16.786Z,19.30
2023-05-10T10:32:52.931Z,19.10
2023-05-10T10:35:19.978Z,19.00
2023-05-10T10:37:48.666Z,19.00
2023-05-10T10:40:24.483Z,19.20
2023-05-10T10:42:51.150Z,19.30
2023-05-10T10:45:18.204Z,19.60
2023-05-10T10:47:46.126Z,19.80
2023-05-10T10:50:17.172Z,20.10
2023-05-10T10:52:45.056Z,20.30
2023-05-10T10:55:19.997Z,20.70
2023-05-10T10:58:03.116Z,20.80
2023-05-10T11:00:41.808Z,20.60
2023-05-10T11:03:14.337Z,20.50
2023-05-10T11:05:42.972Z,20.40
2023-05-10T11:08:17.417Z,20.10
2023-05-10T11:11:04.430Z,19.90
2023-05-10T11:13:33.319Z,19.60
2023-05-10T11:16:10.863Z,19.50
2023-05-10T11:18:38.557Z,19.50
2023-05-10T11:21:08.001Z,19.70
2023-05-10T11:23:58.367Z,19.60
2023-05-10T11:26:38.092Z,19.50
2023-05-10T11:29:05.923Z,19.70
2023-05-10T11:31:33.201Z,19.90
2023-05-10T11:34:02.736Z,20.20
2023-05-10T11:36:33.935Z,20.50
2023-05-10T11:39:00.755Z,20.70
2023-05-10T11:41:30.145Z,20.80
2023-05-10T11:43:58.276Z,20.70
2023-05-10T11:46:30.442Z,20.60
2023-05-10T11:49:02.506Z,20.50
2023-05-10T11:51:29.239Z,20.40
2023-05-10T11:53:57.820Z,20.30
2023-05-10T11:56:25.793Z,20.50
2023-05-10T11:58:58.112Z,20.70
2023-05-10T12:01:28.579Z,21.10
2023-05-10T12:03:59.551Z,21.40
2023-05-10T12:06:33.216Z,21.30
2023-05-10T12:09:00.513Z,21.10
2023-05-10T12:11:29.362Z,21.10
2023-05-10T12:13:57.314Z,21.20
2023-05-10T12:16:26.506Z,21.40
2023-05-10T12:18:55.082Z,21.30
2023-05-10T12:21:22.268Z,21.40
2023-05-10T12:23:54.454Z,21.30
2023-05-10T12:26:25.775Z,21.30
2023-05-10T12:28:52.490Z,21.20
2023-05-10T12:31:19.604Z,21.40
2023-05-10T12:33:47.385Z,21.70
2023-05-10T12:36:15.790Z,21.80
2023-05-10T12:38:45.156Z,21.70
2023-05-10T12:41:16.979Z,21.60
2023-05-10T12:43:43.690Z,21.60
2023-05-10T12:46:12.148Z,21.60
2023-05-10T12:48:40.306Z,21.60
2023-05-10T12:51:12.638Z,21.60
2023-05-10T12:53:41.749Z,21.60
2023-05-10T12:56:11.017Z,21.50
2023-05-10T12:58:37.692Z,21.60
2023-05-10T13:01:06.066Z,21.60
2023-05-10T13:03:33.087Z,21.60
2023-05-10T13:05:59.876Z,21.70
2023-05-10T13:08:26.676Z,21.80
2023-05-10T13:10:53.404Z,21.90
2023-05-10T13:13:20.112Z,21.80
2023-05-10T13:15:46.761Z,21.80
2023-05-10T13:18:13.430Z,21.90
2023-05-10T13:20:40.317Z,22.10
2023-05-10T13:23:07.026Z,22.20
2023-05-10T13:25:35.272Z,22.30
2023-05-10T13:28:02.299Z,22.50
2023-05-10T13:30:29.772Z,22.70
2023-05-10T13:32:56.462Z,22.80
2023-05-10T13:35:23.320Z,22.40
2023-05-10T13:37:50.196Z,22.10
2023-05-10T13:40:17.915Z,21.90
2023-05-10T13:42:44.829Z,21.50
2023-05-10T13:45:13.218Z,21.30
2023-05-10T13:47:40.351Z,21.10
2023-05-10T13:50:07.732Z,20.90
2023-05-10T13:52:34.584Z,20.80
2023-05-10T13:55:01.564Z,20.60
2023-05-10T13:57:29.781Z,20.40
2023-05-10T13:59:58.223Z,20.10
2023-05-10T14:02:25.661Z,19.90
2023-05-10T14:04:52.656Z,19.90
2023-05-10T14:07:19.421Z,20.00
2023-05-10T14:09:46.153Z,20.10
2023-05-10T14:12:12.820Z,20.20
2023-05-10T14:14:39.955Z,20.20
2023-05-10T14:17:06.715Z,20.40
2023-05-10T14:19:33.534Z,20.30
2023-05-10T14:22:00.468Z,20.40
2023-05-10T14:24:27.203Z,20.50
2023-05-10T14:26:56.591Z,20.60
2023-05-10T14:29:23.524Z,20.60
2023-05-10T14:31:50.589Z,20.70
2023-05-10T14:34:17.409Z,20.80
2023-05-10T14:36:44.129Z,20.90
2023-05-10T14:39:11.185Z,20.80
2023-05-10T14:41:38.101Z,20.90
2023-05-10T14:44:04.776Z,20.90
2023-05-10T14:46:31.977Z,21.00
2023-05-10T14:48:58.813Z,21.00
2023-05-10T14:51:25.958Z,21.00
2023-05-10T14:53:52.607Z,20.90
2023-05-10T14:56:19.512Z,20.60
2023-05-10T14:58:46.161Z,20.60
2023-05-10T15:01:12.811Z,20.60
2023-05-10T15:03:40.106Z,20.50
2023-05-10T15:06:08.763Z,20.40
2023-05-10T15:08:35.454Z,20.30
2023-05-10T15:11:02.444Z,20.20
2023-05-10T15:13:29.112Z,19.80
2023-05-10T15:15:55.918Z,19.60
2023-05-10T15:18:24.814Z,19.40
2023-05-10T15:20:51.670Z,19.40
2023-05-10T15:23:18.566Z,19.20
2023-05-10T15:25:45.412Z,19.20
2023-05-10T15:28:12.081Z,19.20
2023-05-10T15:30:38.786Z,19.10
2023-05-10T15:33:05.480Z,19.00
2023-05-10T15:35:32.594Z,18.90
2023-05-10T15:37:59.323Z,18.70
2023-05-10T15:40:26.024Z,18.60
2023-05-10T15:42:52.663Z,18.70
2023-05-10T15:45:19.661Z,18.60
2023-05-10T15:47:46.526Z,18.70
2023-05-10T15:50:13.327Z,18.60
2023-05-10T15:52:40.065Z,18.50
2023-05-10T15:55:12.711Z,18.60
2023-05-10T15:57:44.057Z,18.50
2023-05-10T16:00:12.245Z,18.50
2023-05-10T16:02:40.210Z,18.50
2023-05-10T16:05:07.614Z,18.50
2023-05-10T16:07:34.405Z,18.50
2023-05-10T16:10:06.522Z,18.40
2023-05-10T16:12:33.596Z,18.30
2023-05-10T16:15:00.259Z,18.30
2023-05-10T16:17:26.988Z,18.20
2023-05-10T16:19:53.863Z,18.30
2023-05-10T16:22:22.199Z,18.30
2023-05-10T16:24:53.535Z,18.30
2023-05-10T16:27:20.517Z,18.20
2023-05-10T16:29:48.093Z,18.20
2023-05-10T16:32:14.823Z,18.20
2023-05-10T16:34:41.679Z,18.10
2023-05-10T16:37:08.466Z,18.10
2023-05-10T16:39:35.089Z,18.10
2023-05-10T16:42:01.805Z,18.10
2023-05-10T16:44:28.658Z,18.10
2023-05-10T16:46:55.677Z,18.10
2023-05-10T16:49:23.769Z,18.10
2023-05-10T16:51:52.592Z,18.10
2023-05-10T16:54:20.189Z,18.10
2023-05-10T16:56:46.811Z,18.00
2023-05-10T16:59:13.692Z,18.00
2023-05-10T17:01:40.418Z,18.00
2023-05-10T17:04:07.434Z,17.90
2023-05-10T17:06:36.761Z,17.90
2023-05-10T17:09:04.035Z,17.80
2023-05-10T17:11:31.001Z,17.80
2023-05-10T17:13:59.127Z,17.80
2023-05-10T17:16:25.827Z,17.70
2023-05-10T17:18:52.712Z,17.60
2023-05-10T17:21:19.544Z,17.60
2023-05-10T17:23:46.731Z,17.60
2023-05-10T17:26:13.404Z,17.60
2023-05-10T17:28:40.034Z,17.50
2023-05-10T17:31:06.905Z,17.60
2023-05-10T17:33:33.575Z,17.50
2023-05-10T17:36:00.219Z,17.40
2023-05-10T17:38:26.961Z,17.40
2023-05-10T17:40:53.722Z,17.40
2023-05-10T17:43:20.781Z,17.40
2023-05-10T17:45:50.518Z,17.30
2023-05-10T17:48:17.357Z,17.40
2023-05-10T17:50:44.440Z,17.30
2023-05-10T17:53:11.186Z,17.30
2023-05-10T17:55:41.119Z,17.20
2023-05-10T17:58:08.333Z,17.20
2023-05-10T18:00:35.845Z,17.20
2023-05-10T18:03:03.784Z,17.10
2023-05-10T18:05:31.081Z,17.00
2023-05-10T18:07:57.769Z,16.90
2023-05-10T18:10:24.909Z,16.80
2023-05-10T18:12:52.499Z,16.80
2023-05-10T18:15:19.345Z,16.70
2023-05-10T18:17:46.161Z,16.60
2023-05-10T18:20:13.010Z,16.50
2023-05-10T18:22:39.878Z,16.40
2023-05-10T18:25:07.126Z,16.40
2023-05-10T18:27:34.304Z,16.40
2023-05-10T18:30:01.047Z,16.40
2023-05-10T18:32:27.989Z,16.30
2023-05-10T18:34:55.901Z,16.30
2023-05-10T18:37:22.735Z,16.30
2023-05-10T18:39:49.863Z,16.30
2023-05-10T18:42:16.576Z,16.30
2023-05-10T18:44:43.257Z,16.20
2023-05-10T18:47:09.897Z,16.20
2023-05-10T18:49:36.526Z,16.20
2023-05-10T18:52:03.202Z,16.20
2023-05-10T18:54:30.077Z,16.20
2023-05-10T18:56:58.530Z,16.20
2023-05-10T18:59:25.628Z,16.10
2023-05-10T19:01:53.174Z,16.10
2023-05-10T19:04:21.723Z,16.10
2023-05-10T19:06:48.457Z,16.10
2023-05-10T19:09:15.099Z,16.10
2023-05-10T19:11:43.255Z,16.10
2023-05-10T19:14:10.208Z,16.10
2023-05-10T19:16:37.080Z,16.00
2023-05-10T19:19:04.121Z,16.00
2023-05-10T19:21:33.387Z,15.90
2023-05-10T19:24:01.363Z,15.90
2023-05-10T19:26:28.472Z,15.90
2023-05-10T19:28:55.581Z,15.90
2023-05-10T19:31:22.322Z,15.90
2023-05-10T19:33:49.234Z,15.90
2023-05-10T19:36:16.108Z,15.90
2023-05-10T19:38:42.814Z,15.90
2023-05-10T19:41:09.552Z,15.90
2023-05-10T19:43:39.912Z,15.80
2023-05-10T19:46:06.842Z,15.80
2023-05-10T19:48:33.562Z,15.80
2023-05-10T19:51:07.559Z,15.80
2023-05-10T19:53:36.052Z,15.80
2023-05-10T19:56:04.713Z,15.80
2023-05-10T19:58:31.416Z,15.80
2023-05-10T20:00:58.079Z,15.80
2023-05-10T20:03:25.034Z,15.80
2023-05-10T20:05:51.994Z,15.80
2023-05-10T20:08:18.695Z,15.80
2023-05-10T20:10:45.826Z,15.70
2023-05-10T20:13:12.532Z,15.70
2023-05-10T20:15:39.210Z,15.70
2023-05-10T20:18:06.193Z,15.70
2023-05-10T20:20:32.933Z,15.70
2023-05-10T20:22:59.628Z,15.70
2023-05-10T20:25:26.292Z,15.70
2023-05-10T20:27:53.098Z,15.70
2023-05-10T20:30:20.140Z,15.70
2023-05-10T20:32:47.173Z,15.60
2023-05-10T20:35:13.909Z,15.60
2023-05-10T20:37:40.716Z,15.60
2023-05-10T20:40:07.952Z,15.60
2023-05-10T20:42:34.664Z,15.60
2023-05-10T20:45:01.353Z,15.70
2023-05-10T20:47:28.111Z,15.70
2023-05-10T20:49:54.782Z,15.70
2023-05-10T20:52:23.434Z,15.60
2023-05-10T20:54:51.255Z,15.60
2023-05-10T20:57:17.966Z,15.60
2023-05-10T20:59:44.617Z,15.60
2023-05-10T21:02:11.310Z,15.60
2023-05-10T21:04:38.271Z,15.50
2023-05-10T21:07:04.982Z,15.50
2023-05-10T21:09:31.695Z,15.50
2023-05-10T21:11:58.412Z,15.50
2023-05-10T21:14:25.069Z,15.50
2023-05-10T21:16:51.731Z,15.50
2023-05-10T21:19:18.806Z,15.40
2023-05-10T21:21:45.902Z,15.40
2023-05-10T21:24:12.629Z,15.40
2023-05-10T21:26:39.475Z,15.40
2023-05-10T21:29:06.629Z,15.30
2023-05-10T21:31:33.369Z,15.30
2023-05-10T21:34:00.079Z,15.30
2023-05-10T21:36:27.002Z,15.30
2023-05-10T21:38:53.688Z,15.30
2023-05-10T21:41:20.373Z,15.30
2023-05-10T21:43:47.051Z,15.30
2023-05-10T21:46:14.278Z,15.30
2023-05-10T21:48:41.193Z,15.40
2023-05-10T21:51:07.877Z,15.30
2023-05-10T21:53:37.498Z,15.30
2023-05-10T21:56:04.398Z,15.20
2023-05-10T21:58:31.100Z,15.20
2023-05-10T22:00:57.776Z,15.10
2023-05-10T22:03:24.702Z,15.20
2023-05-10T22:05:51.449Z,15.10
2023-05-10T22:08:18.088Z,15.10
2023-05-10T22:10:44.725Z,15.10
2023-05-10T22:13:11.392Z,15.20
2023-05-10T22:15:38.159Z,15.10
2023-05-10T22:18:04.987Z,15.10
2023-05-10T22:20:32.776Z,15.00
2023-05-10T22:22:59.428Z,15.00
2023-05-10T22:25:26.093Z,15.00
2023-05-10T22:27:52.742Z,15.00
2023-05-10T22:30:20.132Z,15.00
2023-05-10T22:32:47.185Z,15.00
2023-05-10T22:35:13.921Z,14.90
2023-05-10T22:37:40.557Z,14.90
2023-05-10T22:40:07.918Z,14.90
2023-05-10T22:42:34.584Z,14.90
2023-05-10T22:45:01.254Z,14.90
2023-05-10T22:47:27.980Z,14.90
2023-05-10T22:49:55.558Z,14.90
2023-05-10T22:52:22.211Z,14.80
2023-05-10T22:54:48.940Z,14.90
2023-05-10T22:57:16.314Z,14.90
2023-05-10T22:59:43.419Z,14.90
2023-05-10T23:02:10.467Z,14.90
2023-05-10T23:04:37.339Z,14.90
2023-05-10T23:07:04.124Z,14.90
2023-05-10T23:09:30.767Z,14.90
2023-05-10T23:11:57.424Z,14.90
2023-05-10T23:14:24.097Z,14.90
2023-05-10T23:16:51.147Z,14.90
2023-05-10T23:19:17.830Z,14.90
2023-05-10T23:21:44.494Z,14.90
2023-05-10T23:24:11.596Z,14.80
2023-05-10T23:26:38.301Z,14.80
2023-05-10T23:29:04.977Z,14.80
2023-05-10T23:31:31.867Z,14.90
2023-05-10T23:33:58.528Z,14.90
2023-05-10T23:36:25.183Z,14.90
2023-05-10T23:38:51.827Z,14.90
2023-05-10T23:41:18.832Z,14.90
2023-05-10T23:43:45.518Z,14.90
2023-05-10T23:46:12.293Z,14.90
2023-05-10T23:48:39.025Z,14.90
2023-05-10T23:51:05.781Z,14.90
2023-05-10T23:53:32.467Z,14.90
2023-05-10T23:55:59.137Z,14.80
2023-05-10T23:58:25.793Z,14.80
